Time;durP1;ratioP1;P1;durP2;ratioP2;P2;SDS_P1;SDS_P2;PMS_P1;PMS_P2;Temp;Humidity;BMP_temperature;BMP_pressure;BME280_temperature;BME280_humidity;BME280_pressure;Samples;Min_cycle;Max_cycle;Signal;HPM_P1;HPM_P2
2024/01/26 00:02:12;;;;;;;;;;;;;;;6.33;56.28;99739.16;4376610;32;33463;-89
2024/01/26 00:04:40;;;;;;;;;;;;;;;6.37;56.63;99740.16;4384304;32;34554;-92
2024/01/26 00:07:09;;;;;;;;;;;;;;;6.26;57.09;99740.59;4390751;32;33862;-83
2024/01/26 00:09:36;;;;;;;;;;;;;;;6.05;57.98;99742.31;4390245;32;34460;-84
2024/01/26 00:12:05;;;;;;;;;;;;;;;5.90;57.85;99737.41;4378705;32;34185;-85
2024/01/26 00:14:32;;;;;;;;;;;;;;;6.25;57.19;99730.22;4378976;32;34150;-84
2024/01/26 00:17:00;;;;;;;;;;;;;;;5.73;58.81;99735.84;4385833;32;34272;-85
2024/01/26 00:19:28;;;;;;;;;;;;;;;5.71;59.12;99733.19;4390295;32;34192;-84
2024/01/26 00:21:56;;;;;;;;;;;;;;;6.28;57.10;99731.22;4375720;32;34219;-91
2024/01/26 00:24:23;;;;;;;;;;;;;;;6.21;57.24;99733.50;4362050;32;34120;-85
2024/01/26 00:26:50;;;;;;;;;;;;;;;6.25;57.07;99741.44;4375599;32;34332;-83
2024/01/26 00:29:18;;;;;;;;;;;;;;;5.98;58.76;99745.47;4375365;32;34631;-85
2024/01/26 00:31:45;;;;;;;;;;;;;;;6.20;57.73;99745.50;4375948;32;33071;-84
2024/01/26 00:34:13;;;;;;;;;;;;;;;6.36;57.48;99751.25;4375333;32;34127;-82
2024/01/26 00:36:40;;;;;;;;;;;;;;;5.50;59.42;99745.19;4375528;32;34849;-90
2024/01/26 00:39:07;;;;;;;;;;;;;;;5.52;59.61;99758.97;4375594;32;34059;-85
2024/01/26 00:41:35;;;;;;;;;;;;;;;6.07;58.29;99761.28;4375536;32;34218;-85
2024/01/26 00:44:02;;;;;;;;;;;;;;;5.95;58.47;99765.94;4375816;32;34343;-85
2024/01/26 00:46:29;;;;;;;;;;;;;;;5.81;58.78;99768.78;4375326;32;34380;-86
2024/01/26 00:48:57;;;;;;;;;;;;;;;5.54;59.58;99778.81;4375606;32;34261;-85
2024/01/26 00:51:24;;;;;;;;;;;;;;;5.75;59.38;99777.94;4375493;32;33513;-84
2024/01/26 00:53:51;;;;;;;;;;;;;;;5.97;58.67;99780.63;4375527;32;33881;-85
2024/01/26 00:56:19;;;;;;;;;;;;;;;5.65;59.70;99784.41;4372718;32;34545;-84
2024/01/26 00:58:46;;;;;;;;;;;;;;;5.99;58.56;99783.28;4373506;32;35280;-83
2024/01/26 01:01:13;;;;;;;;;;;;;;;5.99;58.72;99796.13;4381295;32;34309;-89
2024/01/26 01:03:41;;;;;;;;;;;;;;;5.53;59.22;99791.59;4379128;32;33857;-83
2024/01/26 01:06:08;;;;;;;;;;;;;;;6.00;58.58;99797.88;4374633;32;33737;-85
2024/01/26 01:08:36;;;;;;;;;;;;;;;6.41;56.77;99793.53;4370102;32;33772;-84
2024/01/26 01:11:04;;;;;;;;;;;;;;;5.63;58.14;99788.59;4370965;32;34144;-83
2024/01/26 01:13:31;;;;;;;;;;;;;;;6.08;57.62;99781.06;4357338;32;34468;-83
2024/01/26 01:16:00;;;;;;;;;;;;;;;6.14;56.77;99767.53;4372493;32;33033;-90
2024/01/26 01:18:28;;;;;;;;;;;;;;;6.23;57.03;99770.50;4375437;32;35124;-90
2024/01/26 01:20:55;;;;;;;;;;;;;;;6.33;56.45;99764.91;4369653;32;33260;-84
2024/01/26 01:23:23;;;;;;;;;;;;;;;6.42;56.17;99762.66;4374937;32;33778;-86
2024/01/26 01:25:51;;;;;;;;;;;;;;;6.16;56.45;99756.50;4375436;32;34087;-84
2024/01/26 01:28:18;;;;;;;;;;;;;;;6.29;56.10;99766.47;4376388;32;35143;-83
2024/01/26 01:30:45;;;;;;;;;;;;;;;6.05;57.72;99768.94;4372481;32;33267;-84
2024/01/26 01:33:13;;;;;;;;;;;;;;;6.03;57.67;99769.69;4376645;32;34276;-88
2024/01/26 01:35:40;;;;;;;;;;;;;;;6.09;57.96;99775.06;4376692;32;33950;-83
2024/01/26 01:38:07;;;;;;;;;;;;;;;6.15;56.84;99779.63;4376830;32;33936;-83
2024/01/26 01:40:35;;;;;;;;;;;;;;;5.31;58.44;99790.69;4384298;32;33121;-88
2024/01/26 01:43:02;;;;;;;;;;;;;;;5.63;58.62;99804.03;4369077;32;33712;-83
2024/01/26 01:45:30;;;;;;;;;;;;;;;5.54;58.74;99806.22;4363781;32;35257;-86
2024/01/26 01:47:58;;;;;;;;;;;;;;;5.68;58.75;99810.22;4364833;32;34122;-85
2024/01/26 01:50:25;;;;;;;;;;;;;;;5.82;58.25;99803.97;4364938;32;33406;-87
2024/01/26 01:52:53;;;;;;;;;;;;;;;5.59;58.98;99804.72;4365908;32;34211;-84
2024/01/26 01:55:20;;;;;;;;;;;;;;;5.99;57.84;99806.44;4366200;32;33114;-89
2024/01/26 01:57:48;;;;;;;;;;;;;;;6.05;57.25;99809.25;4374177;32;34652;-83
2024/01/26 02:00:15;;;;;;;;;;;;;;;5.56;58.42;99796.88;4391325;32;34173;-83
2024/01/26 02:02:45;;;;;;;;;;;;;;;5.52;58.71;99798.41;4372554;32;34329;-86
2024/01/26 02:05:13;;;;;;;;;;;;;;;5.76;58.03;99793.47;4367396;32;34167;-84
2024/01/26 02:07:40;;;;;;;;;;;;;;;5.79;57.47;99790.97;4353982;32;34021;-87
2024/01/26 02:10:08;;;;;;;;;;;;;;;5.73;57.94;99795.03;4372387;32;33476;-91
2024/01/26 02:12:36;;;;;;;;;;;;;;;5.65;57.19;99797.28;4376555;32;34057;-85
2024/01/26 02:15:04;;;;;;;;;;;;;;;5.68;57.73;99802.53;4366713;32;33915;-90
2024/01/26 02:17:33;;;;;;;;;;;;;;;5.35;58.62;99792.56;4365313;32;33016;-84
2024/01/26 02:20:00;;;;;;;;;;;;;;;5.46;58.82;99797.31;4364587;32;34249;-84
2024/01/26 02:22:29;;;;;;;;;;;;;;;5.25;59.18;99792.97;4364484;32;33142;-88
2024/01/26 02:24:57;;;;;;;;;;;;;;;4.54;61.61;99806.88;4365864;32;33247;-89
2024/01/26 02:27:24;;;;;;;;;;;;;;;5.35;59.85;99807.12;4374440;32;35948;-83
2024/01/26 02:29:51;;;;;;;;;;;;;;;5.24;60.11;99798.06;4378362;32;33283;-83
2024/01/26 02:32:19;;;;;;;;;;;;;;;5.50;59.15;99801.75;4367962;32;34338;-85
2024/01/26 02:34:46;;;;;;;;;;;;;;;5.51;58.98;99806.09;4367221;32;33133;-88
2024/01/26 02:37:13;;;;;;;;;;;;;;;5.72;58.22;99800.97;4366887;32;35284;-88
2024/01/26 02:39:41;;;;;;;;;;;;;;;5.36;58.28;99806.28;4365218;32;33145;-86
2024/01/26 02:42:08;;;;;;;;;;;;;;;5.51;58.28;99801.81;4367360;32;33847;-85
2024/01/26 02:44:35;;;;;;;;;;;;;;;5.35;58.46;99809.69;4364883;32;34212;-86
2024/01/26 02:47:03;;;;;;;;;;;;;;;5.26;59.67;99807.56;4364372;32;33906;-90
2024/01/26 02:49:31;;;;;;;;;;;;;;;5.48;59.34;99809.38;4364806;32;32848;-87
2024/01/26 02:51:58;;;;;;;;;;;;;;;5.18;59.96;99803.78;4354448;32;33081;-85
2024/01/26 02:54:25;;;;;;;;;;;;;;;5.29;59.76;99805.13;4365275;32;35085;-86
2024/01/26 02:56:53;;;;;;;;;;;;;;;5.69;58.11;99804.31;4382345;32;33536;-86
2024/01/26 02:59:21;;;;;;;;;;;;;;;5.59;58.10;99809.84;4391010;32;32921;-85
2024/01/26 03:01:49;;;;;;;;;;;;;;;5.27;59.01;99814.50;4376263;32;34675;-85
2024/01/26 03:04:18;;;;;;;;;;;;;;;5.75;57.83;99814.84;4370588;32;34444;-85
2024/01/26 03:06:46;;;;;;;;;;;;;;;5.77;58.12;99818.37;4367821;32;33790;-84
2024/01/26 03:09:14;;;;;;;;;;;;;;;5.62;58.02;99822.84;4370904;32;32732;-84
2024/01/26 03:11:42;;;;;;;;;;;;;;;5.58;58.20;99820.97;4375765;32;34897;-85
2024/01/26 03:14:09;;;;;;;;;;;;;;;5.45;58.95;99821.22;4368639;32;34366;-84
2024/01/26 03:16:40;;;;;;;;;;;;;;;5.35;59.07;99822.53;4367119;32;34976;-88
2024/01/26 03:19:08;;;;;;;;;;;;;;;5.37;58.57;99824.34;4368157;32;33678;-88
2024/01/26 03:21:45;;;;;;;;;;;;;;;5.21;59.19;99818.47;4372917;32;33975;-84
2024/01/26 03:24:12;;;;;;;;;;;;;;;4.90;60.95;99823.94;4365912;32;34897;-85
2024/01/26 03:26:40;;;;;;;;;;;;;;;5.27;60.46;99824.78;4361578;32;34601;-87
2024/01/26 03:29:08;;;;;;;;;;;;;;;5.26;59.16;99814.41;4375460;32;33143;-86
2024/01/26 03:31:36;;;;;;;;;;;;;;;5.46;59.04;99813.59;4375670;32;33849;-83
2024/01/26 03:34:04;;;;;;;;;;;;;;;5.54;59.54;99808.78;4376398;32;34435;-86
2024/01/26 03:36:32;;;;;;;;;;;;;;;5.22;60.05;99805.69;4375830;32;35032;-92
2024/01/26 03:38:59;;;;;;;;;;;;;;;5.21;60.66;99811.63;4376404;32;34342;-85
2024/01/26 03:41:26;;;;;;;;;;;;;;;5.41;59.03;99806.50;4375889;32;33889;-85
2024/01/26 03:43:54;;;;;;;;;;;;;;;5.47;58.13;99811.91;4375654;32;34114;-88
2024/01/26 03:46:21;;;;;;;;;;;;;;;5.58;57.49;99813.25;4374800;32;34370;-85
2024/01/26 03:48:48;;;;;;;;;;;;;;;5.54;57.24;99813.94;4375457;32;33264;-84
2024/01/26 03:51:16;;;;;;;;;;;;;;;5.27;57.93;99818.75;4376250;32;34315;-84
2024/01/26 03:53:43;;;;;;;;;;;;;;;5.18;57.96;99821.78;4375208;32;34353;-85
2024/01/26 03:56:11;;;;;;;;;;;;;;;5.16;58.08;99827.69;4374652;32;34152;-89
2024/01/26 03:58:39;;;;;;;;;;;;;;;4.71;58.96;99833.34;4375139;32;34082;-85
2024/01/26 04:01:06;;;;;;;;;;;;;;;4.94;58.74;99830.97;4368314;32;34709;-84
2024/01/26 04:03:33;;;;;;;;;;;;;;;4.65;59.97;99840.75;4375000;32;34410;-84
2024/01/26 04:06:03;;;;;;;;;;;;;;;4.40;61.92;99843.88;4375315;32;35102;-85
2024/01/26 04:08:32;;;;;;;;;;;;;;;4.37;62.23;99854.00;4375042;32;33625;-85
2024/01/26 04:10:59;;;;;;;;;;;;;;;4.74;61.89;99854.06;4378552;32;33964;-85
2024/01/26 04:13:26;;;;;;;;;;;;;;;4.90;61.03;99853.06;4375178;32;33798;-85
2024/01/26 04:15:53;;;;;;;;;;;;;;;4.74;61.32;99848.91;4375687;32;34162;-86
2024/01/26 04:18:21;;;;;;;;;;;;;;;4.88;60.61;99849.53;4374755;32;34505;-85
2024/01/26 04:20:48;;;;;;;;;;;;;;;4.08;64.24;99852.56;4374985;32;34859;-86
2024/01/26 04:23:16;;;;;;;;;;;;;;;4.67;62.03;99852.00;4376031;32;35327;-85
2024/01/26 04:25:43;;;;;;;;;;;;;;;4.93;61.11;99860.06;4377187;32;35061;-85
2024/01/26 04:28:11;;;;;;;;;;;;;;;4.73;61.93;99870.25;4373589;32;33309;-85
2024/01/26 04:30:40;;;;;;;;;;;;;;;4.94;61.54;99879.78;4373688;32;35108;-88
2024/01/26 04:33:07;;;;;;;;;;;;;;;4.86;60.82;99884.56;4374324;32;35145;-87
2024/01/26 04:35:35;;;;;;;;;;;;;;;4.67;61.33;99884.50;4373888;32;33592;-86
2024/01/26 04:38:02;;;;;;;;;;;;;;;4.76;61.27;99897.78;4368813;32;33091;-86
2024/01/26 04:40:30;;;;;;;;;;;;;;;4.66;61.66;99908.41;4374103;32;33598;-86
2024/01/26 04:42:57;;;;;;;;;;;;;;;4.38;62.94;99918.22;4378976;32;35511;-86
2024/01/26 04:45:24;;;;;;;;;;;;;;;4.69;61.77;99914.56;4375986;32;33784;-85
2024/01/26 04:47:52;;;;;;;;;;;;;;;4.88;61.30;99909.50;4374924;32;33590;-85
2024/01/26 04:50:19;;;;;;;;;;;;;;;4.68;61.38;99906.81;4374371;32;34296;-85
2024/01/26 04:52:49;;;;;;;;;;;;;;;4.63;62.09;99899.78;4376708;32;34185;-86
2024/01/26 04:55:16;;;;;;;;;;;;;;;4.28;64.15;99894.59;4374723;32;34014;-88
2024/01/26 04:57:43;;;;;;;;;;;;;;;4.63;63.29;99886.94;4383528;32;33102;-89
2024/01/26 05:00:15;;;;;;;;;;;;;;;4.34;64.35;99890.66;4386691;32;33823;-85
2024/01/26 05:02:43;;;;;;;;;;;;;;;4.20;64.76;99873.69;4348392;32;34287;-89
2024/01/26 05:05:11;;;;;;;;;;;;;;;4.14;65.25;99878.53;4372911;32;34684;-90
2024/01/26 05:07:39;;;;;;;;;;;;;;;4.24;65.13;99883.28;4370578;32;33217;-83
2024/01/26 05:10:06;;;;;;;;;;;;;;;4.00;65.55;99887.22;4380887;32;34659;-85
2024/01/26 05:12:34;;;;;;;;;;;;;;;4.40;64.33;99887.50;4371542;32;35184;-86
2024/01/26 05:15:02;;;;;;;;;;;;;;;4.52;63.78;99884.66;4371292;32;35089;-87
2024/01/26 05:17:33;;;;;;;;;;;;;;;3.97;65.90;99897.31;4380156;32;32844;-84
2024/01/26 05:20:00;;;;;;;;;;;;;;;4.45;64.24;99892.88;4380988;32;34431;-87
2024/01/26 05:22:28;;;;;;;;;;;;;;;4.25;65.03;99903.03;4384883;32;34910;-86
2024/01/26 05:24:55;;;;;;;;;;;;;;;4.17;65.14;99904.34;4381371;32;34353;-86
2024/01/26 05:27:22;;;;;;;;;;;;;;;4.06;65.62;99908.94;4388130;32;34044;-85
2024/01/26 05:29:49;;;;;;;;;;;;;;;4.66;63.67;99909.31;4382325;32;33591;-85
2024/01/26 05:32:20;;;;;;;;;;;;;;;4.41;64.70;99914.06;4378765;32;35211;-85
2024/01/26 05:34:47;;;;;;;;;;;;;;;4.51;64.43;99913.69;4379345;32;35037;-86
2024/01/26 05:37:15;;;;;;;;;;;;;;;4.46;64.32;99928.88;4377895;32;34118;-86
2024/01/26 05:39:42;;;;;;;;;;;;;;;4.07;65.56;99938.03;4379559;32;34273;-86
2024/01/26 05:42:09;;;;;;;;;;;;;;;4.24;65.02;99929.50;4377698;32;34346;-86
2024/01/26 05:44:37;;;;;;;;;;;;;;;4.71;63.49;99920.69;4379371;32;34959;-85
2024/01/26 05:47:04;;;;;;;;;;;;;;;4.85;63.02;99913.66;4380853;32;33422;-90
2024/01/26 05:49:33;;;;;;;;;;;;;;;4.91;62.70;99907.91;4386216;32;34012;-86
2024/01/26 05:52:00;;;;;;;;;;;;;;;4.46;64.08;99916.03;4381694;32;35248;-86
2024/01/26 05:54:28;;;;;;;;;;;;;;;4.42;63.91;99914.12;4378824;32;35203;-91
2024/01/26 05:56:55;;;;;;;;;;;;;;;4.50;63.93;99907.66;4378183;32;33342;-91
2024/01/26 05:59:22;;;;;;;;;;;;;;;4.74;63.59;99900.28;4378983;32;34326;-86
2024/01/26 06:01:49;;;;;;;;;;;;;;;4.96;62.17;99912.44;4378100;32;34399;-86
2024/01/26 06:04:17;;;;;;;;;;;;;;;4.49;63.92;99911.06;4378552;32;34362;-87
2024/01/26 06:06:44;;;;;;;;;;;;;;;4.23;65.37;99911.47;4379440;32;33095;-85
2024/01/26 06:09:12;;;;;;;;;;;;;;;4.03;65.83;99901.09;4376506;32;34219;-86
2024/01/26 06:11:45;;;;;;;;;;;;;;;4.28;65.32;99910.00;4377920;32;34349;-86
2024/01/26 06:14:12;;;;;;;;;;;;;;;4.21;65.44;99906.25;4375755;32;34227;-86
2024/01/26 06:16:40;;;;;;;;;;;;;;;4.06;66.03;99915.75;4377859;32;33332;-88
2024/01/26 06:19:07;;;;;;;;;;;;;;;4.63;64.07;99924.56;4375324;32;34811;-91
2024/01/26 06:21:34;;;;;;;;;;;;;;;4.42;64.89;99920.94;4376346;32;34293;-86
2024/01/26 06:24:02;;;;;;;;;;;;;;;4.72;64.03;99925.00;4375304;32;34017;-86
2024/01/26 06:26:30;;;;;;;;;;;;;;;4.43;65.16;99927.84;4375081;32;33237;-86
2024/01/26 06:28:57;;;;;;;;;;;;;;;4.23;65.52;99927.72;4375732;32;35031;-86
2024/01/26 06:31:25;;;;;;;;;;;;;;;4.24;65.75;99926.03;4375907;32;34885;-86
2024/01/26 06:33:52;;;;;;;;;;;;;;;4.76;64.03;99921.78;4375752;32;33834;-92
2024/01/26 06:36:20;;;;;;;;;;;;;;;4.19;65.57;99930.97;4375028;32;33049;-89
2024/01/26 06:38:48;;;;;;;;;;;;;;;4.52;65.07;99929.19;4368073;32;34653;-87
2024/01/26 06:41:15;;;;;;;;;;;;;;;4.51;64.84;99929.09;4369461;32;34089;-89
2024/01/26 06:43:47;;;;;;;;;;;;;;;4.42;65.12;99933.78;4373846;32;35676;-89
2024/01/26 06:46:14;;;;;;;;;;;;;;;4.21;65.94;99937.06;4374604;32;34479;-85
2024/01/26 06:48:42;;;;;;;;;;;;;;;4.25;66.00;99944.09;4375697;32;34193;-86
2024/01/26 06:51:09;;;;;;;;;;;;;;;4.22;66.19;99946.50;4379120;32;34106;-87
2024/01/26 06:53:37;;;;;;;;;;;;;;;4.14;66.61;99932.41;4377149;32;34852;-87
2024/01/26 06:56:04;;;;;;;;;;;;;;;4.09;66.83;99938.97;4374119;32;33182;-85
2024/01/26 06:58:32;;;;;;;;;;;;;;;4.26;66.51;99933.03;4376787;32;34148;-87
2024/01/26 07:01:00;;;;;;;;;;;;;;;4.62;65.16;99930.50;4373279;32;34543;-87
2024/01/26 07:03:27;;;;;;;;;;;;;;;4.51;65.21;99924.87;4375318;32;34223;-85
2024/01/26 07:05:55;;;;;;;;;;;;;;;4.82;64.58;99934.03;4374927;32;34054;-86
2024/01/26 07:08:22;;;;;;;;;;;;;;;4.68;65.09;99933.37;4374182;32;34308;-85
2024/01/26 07:10:49;;;;;;;;;;;;;;;4.68;65.20;99945.34;4377998;32;35258;-93
2024/01/26 07:13:16;;;;;;;;;;;;;;;4.42;66.00;99952.63;4374727;32;34127;-84
2024/01/26 07:15:44;;;;;;;;;;;;;;;4.68;65.31;99938.50;4374577;32;31373;-84
2024/01/26 07:18:11;;;;;;;;;;;;;;;4.99;63.92;99934.84;4375685;32;34352;-85
2024/01/26 07:20:39;;;;;;;;;;;;;;;4.51;65.48;99940.28;4373659;32;34998;-84
2024/01/26 07:23:06;;;;;;;;;;;;;;;4.57;65.45;99943.13;4374923;32;34371;-85
2024/01/26 07:25:33;;;;;;;;;;;;;;;4.37;66.30;99946.41;4374558;32;35150;-83
2024/01/26 07:28:00;;;;;;;;;;;;;;;4.23;66.79;99958.53;4361743;32;34122;-85
2024/01/26 07:30:28;;;;;;;;;;;;;;;4.52;66.06;99956.56;4359709;32;34307;-82
2024/01/26 07:32:55;;;;;;;;;;;;;;;4.52;66.09;99949.72;4360487;32;34561;-85
2024/01/26 07:35:23;;;;;;;;;;;;;;;4.51;66.00;99947.06;4359098;32;33661;-95
2024/01/26 07:37:50;;;;;;;;;;;;;;;4.68;65.63;99941.06;4360169;32;34350;-84
2024/01/26 07:40:17;;;;;;;;;;;;;;;4.56;65.77;99954.22;4360537;32;33912;-86
2024/01/26 07:42:45;;;;;;;;;;;;;;;4.66;65.67;99952.97;4360846;32;34273;-84
2024/01/26 07:45:13;;;;;;;;;;;;;;;4.72;65.41;99960.09;4358614;32;33576;-84
2024/01/26 07:47:41;;;;;;;;;;;;;;;4.90;64.87;99970.37;4360416;32;34827;-86
2024/01/26 07:50:08;;;;;;;;;;;;;;;4.90;65.00;99960.97;4360615;32;33979;-83
2024/01/26 07:52:36;;;;;;;;;;;;;;;4.79;65.27;99960.47;4359857;32;35007;-82
2024/01/26 07:55:04;;;;;;;;;;;;;;;4.93;64.55;99967.97;4359655;32;34252;-84
2024/01/26 07:57:32;;;;;;;;;;;;;;;4.47;66.57;99973.41;4362571;32;33739;-92
2024/01/26 07:59:59;;;;;;;;;;;;;;;4.27;67.35;99974.97;4360969;32;33911;-81
2024/01/26 08:02:27;;;;;;;;;;;;;;;4.75;65.78;99975.66;4360457;32;34626;-85
2024/01/26 08:04:55;;;;;;;;;;;;;;;4.45;67.02;99981.03;4360089;32;33100;-83
2024/01/26 08:07:22;;;;;;;;;;;;;;;4.56;66.68;99976.44;4360945;32;34826;-80
2024/01/26 08:09:49;;;;;;;;;;;;;;;4.49;66.82;99976.94;4362985;32;34153;-82
2024/01/26 08:12:17;;;;;;;;;;;;;;;4.57;66.55;99980.75;4361539;32;34965;-86
2024/01/26 08:15:04;;;;;;;;;;;;;;;4.68;66.16;99971.91;4356670;32;33269;-83
2024/01/26 08:17:32;;;;;;;;;;;;;;;5.02;65.12;99970.97;4356321;32;35329;-81
2024/01/26 08:20:02;;;;;;;;;;;;;;;4.67;66.11;99965.00;4359910;32;35045;-84
2024/01/26 08:22:30;;;;;;;;;;;;;;;4.50;66.87;99963.28;4358129;32;33206;-81
2024/01/26 08:24:58;;;;;;;;;;;;;;;4.90;65.69;99965.25;4360163;32;33282;-82
2024/01/26 08:27:26;;;;;;;;;;;;;;;5.17;64.82;99951.12;4371147;32;34743;-89
2024/01/26 08:29:53;;;;;;;;;;;;;;;5.64;63.30;99954.97;4375923;32;34753;-84
2024/01/26 08:32:20;;;;;;;;;;;;;;;5.16;64.61;99944.22;4373011;32;34714;-86
2024/01/26 08:34:48;;;;;;;;;;;;;;;4.93;65.21;99948.28;4386313;32;33465;-82
2024/01/26 08:37:15;;;;;;;;;;;;;;;5.27;64.39;99949.88;4366504;32;34273;-86
2024/01/26 08:39:43;;;;;;;;;;;;;;;5.05;64.87;99945.41;4374214;32;35246;-82
2024/01/26 08:42:10;;;;;;;;;;;;;;;5.44;63.41;99951.50;4375723;32;34188;-90
2024/01/26 08:44:37;;;;;;;;;;;;;;;5.45;63.67;99957.53;4375290;32;33343;-82
2024/01/26 08:47:05;;;;;;;;;;;;;;;5.69;62.91;99968.94;4376832;32;33921;-82
2024/01/26 08:49:32;;;;;;;;;;;;;;;5.79;62.29;99971.09;4373247;32;32848;-83
2024/01/26 08:52:00;;;;;;;;;;;;;;;5.67;62.42;99967.97;4374393;32;34383;-83
2024/01/26 08:54:27;;;;;;;;;;;;;;;5.58;62.49;99975.28;4374325;32;33237;-89
2024/01/26 08:56:56;;;;;;;;;;;;;;;5.91;61.82;99986.22;4373737;32;34953;-83
2024/01/26 08:59:23;;;;;;;;;;;;;;;5.83;61.58;99985.87;4377587;32;34512;-83
2024/01/26 09:01:51;;;;;;;;;;;;;;;5.79;61.89;99995.94;4383769;32;34681;-85
2024/01/26 09:04:20;;;;;;;;;;;;;;;5.62;61.68;99996.06;4384932;32;33700;-84
2024/01/26 09:06:47;;;;;;;;;;;;;;;5.79;61.37;99983.97;4375175;32;33990;-90
2024/01/26 09:09:23;;;;;;;;;;;;;;;5.86;61.00;99988.56;4374529;32;34402;-83
2024/01/26 09:11:52;;;;;;;;;;;;;;;5.78;61.01;99989.06;4374743;32;35085;-83
2024/01/26 09:14:19;;;;;;;;;;;;;;;5.82;61.20;99986.69;4375237;32;33444;-83
2024/01/26 09:16:51;;;;;;;;;;;;;;;5.97;60.51;99999.38;4372183;32;34584;-84
2024/01/26 09:19:18;;;;;;;;;;;;;;;5.97;60.41;99988.22;4373583;32;35238;-82
2024/01/26 09:21:47;;;;;;;;;;;;;;;6.00;60.44;99990.94;4370461;32;34697;-83
2024/01/26 09:24:14;;;;;;;;;;;;;;;5.93;60.62;99986.31;4373723;32;32875;-84
2024/01/26 09:26:41;;;;;;;;;;;;;;;6.01;60.39;99993.56;4374324;32;33219;-84
2024/01/26 09:29:09;;;;;;;;;;;;;;;6.22;59.87;99991.06;4374073;32;34385;-95
2024/01/26 09:31:36;;;;;;;;;;;;;;;6.47;59.35;99992.09;4373170;32;34985;-83
2024/01/26 09:34:04;;;;;;;;;;;;;;;6.36;59.79;99990.75;4374493;32;34098;-82
2024/01/26 09:36:31;;;;;;;;;;;;;;;6.53;59.35;99982.91;4374184;32;34430;-83
2024/01/26 09:38:59;;;;;;;;;;;;;;;6.16;59.82;99988.19;4374406;32;34146;-83
2024/01/26 09:41:26;;;;;;;;;;;;;;;6.02;59.60;99995.34;4373578;32;34270;-96
2024/01/26 09:43:53;;;;;;;;;;;;;;;6.22;59.45;99990.19;4373925;32;34247;-94
2024/01/26 09:46:21;;;;;;;;;;;;;;;6.41;59.01;99985.00;4376042;32;33887;-84
2024/01/26 09:48:49;;;;;;;;;;;;;;;6.65;56.93;99997.12;4376094;32;34358;-89
2024/01/26 09:51:16;;;;;;;;;;;;;;;6.61;56.74;99995.25;4378585;32;34085;-84
2024/01/26 09:53:43;;;;;;;;;;;;;;;6.48;56.94;99983.56;4376478;32;32791;-83
2024/01/26 09:56:11;;;;;;;;;;;;;;;6.76;55.76;99978.72;4374760;32;33774;-84
2024/01/26 09:58:38;;;;;;;;;;;;;;;6.93;55.35;99987.16;4375453;32;34077;-94
2024/01/26 10:01:05;;;;;;;;;;;;;;;6.89;55.63;99985.25;4376101;32;33696;-83
2024/01/26 10:03:33;;;;;;;;;;;;;;;6.96;54.75;99984.66;4371902;32;33124;-89
2024/01/26 10:06:02;;;;;;;;;;;;;;;6.89;54.66;99992.09;4377355;32;35001;-86
2024/01/26 10:08:41;;;;;;;;;;;;;;;6.78;55.05;99992.56;4375215;32;34625;-82
2024/01/26 10:11:09;;;;;;;;;;;;;;;6.83;54.21;99991.03;4367261;32;34847;-83
2024/01/26 10:13:36;;;;;;;;;;;;;;;7.19;53.65;99977.84;4376202;32;34239;-83
2024/01/26 10:16:07;;;;;;;;;;;;;;;7.38;52.80;99968.25;4375995;32;34810;-82
2024/01/26 10:18:43;;;;;;;;;;;;;;;7.41;52.31;99970.94;4375216;32;34067;-83
2024/01/26 10:21:11;;;;;;;;;;;;;;;7.38;52.32;99961.38;4376064;32;33859;-83
2024/01/26 10:23:39;;;;;;;;;;;;;;;7.31;52.59;99949.06;4365020;32;34016;-85
2024/01/26 10:26:06;;;;;;;;;;;;;;;7.87;50.94;99957.16;4375054;32;34508;-83
2024/01/26 10:28:34;;;;;;;;;;;;;;;7.77;50.54;99956.84;4362616;32;33911;-83
2024/01/26 10:31:01;;;;;;;;;;;;;;;7.82;50.39;99956.13;4375443;32;34241;-83
2024/01/26 10:33:29;;;;;;;;;;;;;;;7.72;50.64;99957.47;4373860;32;34114;-83
2024/01/26 10:35:57;;;;;;;;;;;;;;;7.64;50.66;99958.91;4375273;32;33764;-83
2024/01/26 10:38:25;;;;;;;;;;;;;;;7.61;50.34;99951.91;4374220;32;34964;-83
2024/01/26 10:41:02;;;;;;;;;;;;;;;7.93;49.40;99957.41;4374315;32;33728;-90
2024/01/26 10:43:31;;;;;;;;;;;;;;;8.17;48.72;99962.53;4366703;32;33228;-84
2024/01/26 10:45:59;;;;;;;;;;;;;;;8.37;48.52;99960.66;4376780;32;34960;-83
2024/01/26 10:48:26;;;;;;;;;;;;;;;8.39;48.40;99952.16;4375168;32;35252;-95
2024/01/26 10:50:54;;;;;;;;;;;;;;;8.52;48.05;99950.84;4374063;32;34337;-86
2024/01/26 10:53:22;;;;;;;;;;;;;;;8.18;48.59;99952.28;4370690;32;33466;-92
2024/01/26 10:55:50;;;;;;;;;;;;;;;8.34;47.80;99950.22;4375912;32;34230;-82
2024/01/26 10:58:17;;;;;;;;;;;;;;;8.24;49.02;99957.66;4375841;32;34314;-83
2024/01/26 11:00:44;;;;;;;;;;;;;;;8.05;50.95;99952.66;4374680;32;35500;-93
2024/01/26 11:03:12;;;;;;;;;;;;;;;8.24;50.90;99957.66;4376213;32;33051;-82
2024/01/26 11:05:39;;;;;;;;;;;;;;;8.18;51.04;99956.53;4376279;32;34241;-90
2024/01/26 11:08:10;;;;;;;;;;;;;;;8.29;50.73;99956.09;4363649;32;34314;-84
2024/01/26 11:10:40;;;;;;;;;;;;;;;8.36;50.42;99953.72;4373646;32;33752;-87
2024/01/26 11:13:09;;;;;;;;;;;;;;;7.96;50.71;99949.78;4374559;32;33599;-82
2024/01/26 11:15:36;;;;;;;;;;;;;;;8.07;50.87;99948.44;4376319;32;33686;-88
2024/01/26 11:18:05;;;;;;;;;;;;;;;7.99;51.78;99940.44;4385426;32;35224;-88
2024/01/26 11:20:35;;;;;;;;;;;;;;;7.52;53.20;99942.16;4378259;32;33919;-83
2024/01/26 11:23:11;;;;;;;;;;;;;;;7.72;53.16;99945.44;4377173;32;34180;-86
2024/01/26 11:25:39;;;;;;;;;;;;;;;7.59;53.88;99947.56;4375677;32;34978;-86
2024/01/26 11:28:07;;;;;;;;;;;;;;;7.15;54.17;99926.97;4376230;32;34504;-83
2024/01/26 11:30:35;;;;;;;;;;;;;;;7.54;53.53;99932.78;4376041;32;35449;-93
2024/01/26 11:33:02;;;;;;;;;;;;;;;7.79;52.31;99934.53;4375631;32;32989;-93
2024/01/26 11:35:30;;;;;;;;;;;;;;;7.71;51.67;99929.94;4379672;32;34076;-95
2024/01/26 11:37:57;;;;;;;;;;;;;;;8.00;51.30;99934.44;4375596;32;34301;-82
2024/01/26 11:40:25;;;;;;;;;;;;;;;7.56;51.93;99928.53;4373663;32;34352;-81
2024/01/26 11:42:52;;;;;;;;;;;;;;;7.77;51.12;99931.03;4376117;32;33644;-82
2024/01/26 11:45:42;;;;;;;;;;;;;;;7.74;51.16;99925.75;4375980;32;34053;-82
2024/01/26 11:48:14;;;;;;;;;;;;;;;7.54;51.84;99926.75;4378054;32;35237;-93
2024/01/26 11:50:43;;;;;;;;;;;;;;;7.72;51.59;99918.78;4363043;32;33723;-88
2024/01/26 11:53:13;;;;;;;;;;;;;;;8.21;50.02;99911.03;4376053;32;34293;-92
2024/01/26 11:55:41;;;;;;;;;;;;;;;8.16;50.11;99901.37;4375648;32;34946;-89
2024/01/26 11:58:09;;;;;;;;;;;;;;;7.98;50.06;99915.41;4375504;32;34413;-82
2024/01/26 12:00:37;;;;;;;;;;;;;;;8.34;49.38;99902.00;4375505;32;34675;-87
2024/01/26 12:03:06;;;;;;;;;;;;;;;8.56;48.98;99880.38;4378141;32;33319;-83
2024/01/26 12:05:33;;;;;;;;;;;;;;;8.28;48.82;99881.13;4362584;32;34245;-84
2024/01/26 12:08:05;;;;;;;;;;;;;;;8.08;49.51;99875.31;4379033;32;34496;-83
2024/01/26 12:10:33;;;;;;;;;;;;;;;8.44;48.29;99867.03;4391162;32;33934;-85
2024/01/26 12:13:01;;;;;;;;;;;;;;;8.39;48.32;99872.06;4376621;32;33292;-82
2024/01/26 12:15:37;;;;;;;;;;;;;;;8.45;47.92;99866.25;4362075;32;34982;-95
2024/01/26 12:18:06;;;;;;;;;;;;;;;8.38;48.31;99870.31;4375744;32;33874;-84
2024/01/26 12:20:34;;;;;;;;;;;;;;;8.15;48.97;99872.09;4365196;32;34166;-92
2024/01/26 12:23:01;;;;;;;;;;;;;;;8.31;49.00;99864.87;4378025;32;34222;-84
2024/01/26 12:25:29;;;;;;;;;;;;;;;7.91;49.80;99853.19;4362566;32;33931;-84
2024/01/26 12:28:01;;;;;;;;;;;;;;;7.98;49.62;99849.97;4374148;32;34508;-87
2024/01/26 12:30:29;;;;;;;;;;;;;;;8.14;49.12;99860.00;4373860;32;35086;-87
2024/01/26 12:33:04;;;;;;;;;;;;;;;7.98;48.64;99856.03;4362051;32;33455;-90
2024/01/26 12:35:39;;;;;;;;;;;;;;;8.09;48.73;99837.44;4362402;32;33727;-84
2024/01/26 12:38:07;;;;;;;;;;;;;;;8.15;48.37;99851.44;4375493;32;34454;-87
2024/01/26 12:40:35;;;;;;;;;;;;;;;7.76;48.84;99845.78;4374907;32;34858;-82
2024/01/26 12:43:02;;;;;;;;;;;;;;;7.72;48.88;99849.97;4374058;32;33273;-83
2024/01/26 12:45:30;;;;;;;;;;;;;;;7.73;49.10;99845.69;4375338;32;35046;-84
2024/01/26 12:47:57;;;;;;;;;;;;;;;8.07;48.17;99834.81;4376693;32;35251;-87
2024/01/26 12:50:25;;;;;;;;;;;;;;;8.39;47.73;99837.59;4384935;32;34292;-96
2024/01/26 12:52:52;;;;;;;;;;;;;;;7.80;48.44;99819.25;4376703;32;33266;-85
2024/01/26 12:55:19;;;;;;;;;;;;;;;8.28;48.04;99812.25;4378998;32;33866;-84
2024/01/26 12:57:47;;;;;;;;;;;;;;;8.20;48.04;99808.56;4378913;32;33941;-84
2024/01/26 13:00:15;;;;;;;;;;;;;;;7.95;48.10;99811.16;4375056;32;34074;-83
2024/01/26 13:02:43;;;;;;;;;;;;;;;8.35;47.70;99812.47;4379132;32;33225;-90